Impacts TAF Board
For situational awareness. Not to be used for flight planning purposes.
IDs:

KASD - Slidell Arpt, LA, US

Issued at 1435 UTC 23 Jan 2019
Updated at 1735 UTC 23 Jan 2019
Potential Impact None Slight Moderate High
Time<<24/06Z 24/07Z 24/08Z 24/09Z 24/10Z 24/11Z 24/12Z 24/13Z 24/14Z 24/15Z 24/16Z 24/17Z 24/18Z>>
Type PRVL PRVL PRVL PRVL PRVL PRVL
VIS >6 >6 >6 >6 >6 >6
CIG 16 16 16 16 16 16
Cover OVC OVC OVC OVC OVC OVC
FltCat MVFR MVFR MVFR MVFR MVFR MVFR
WX -- -- -- -- -- --
WDir 330 330 330 330 330 330
WSpd 10 10 10 10 10 10
WGst -- -- -- -- -- --
Raw TAF
KASD 231435Z 2315/2412 21009KT 3SM -SHRA SCT005 BKN020 OVC025
  TEMPO 2315/2317 22012G18KT 1/2SM +SHRA BKN005
  FM231700 22014G20KT 5SM -SHRA BKN015
  TEMPO 2318/2320 32015G22KT 1/2SM +SHRA BKN005
  FM232000 32010G17KT 3SM SHRA BKN015
  FM240100 33010KT P6SM OVC016


METAR Board
Radar Display
Forecast Discussion
For situational awareness. Not to be used for flight planning purposes.